Time;durP1;ratioP1;P1;durP2;ratioP2;P2;SDS_P1;SDS_P2;PMS_P1;PMS_P2;Temp;Humidity;BMP_temperature;BMP_pressure;BME280_temperature;BME280_humidity;BME280_pressure;Samples;Min_cycle;Max_cycle;Signal;HPM_P1;HPM_P2
2021/09/22 00:00:45;;;;;;;5.37;4.97;;;;;;;13.05;100.00;101712.50;5131454;27;20542;-71
2021/09/22 00:03:10;;;;;;;4.97;4.30;;;;;;;13.04;100.00;101711.69;5131382;28;20180;-71
2021/09/22 00:05:36;;;;;;;4.93;4.10;;;;;;;13.00;100.00;101705.13;5129452;28;20353;-71
2021/09/22 00:08:01;;;;;;;4.10;3.70;;;;;;;13.00;100.00;101704.31;5131353;27;20619;-71
2021/09/22 00:10:27;;;;;;;4.57;4.03;;;;;;;12.98;100.00;101703.81;5130150;28;20534;-71
2021/09/22 00:12:52;;;;;;;4.17;3.77;;;;;;;12.96;100.00;101697.81;5131128;27;20616;-71
2021/09/22 00:15:22;;;;;;;7.67;4.83;;;;;;;12.94;100.00;101703.59;5130889;27;20716;-71
2021/09/22 00:17:48;;;;;;;4.60;4.23;;;;;;;12.93;100.00;101704.72;5131189;27;20172;-71
2021/09/22 00:20:14;;;;;;;4.67;4.27;;;;;;;12.91;100.00;101703.38;5131264;27;20175;-71
2021/09/22 00:22:40;;;;;;;5.57;4.93;;;;;;;12.90;100.00;101702.56;5130403;27;20200;-71
2021/09/22 00:25:07;;;;;;;5.30;4.63;;;;;;;12.91;100.00;101704.19;5134729;27;20287;-71
2021/09/22 00:27:32;;;;;;;4.40;4.00;;;;;;;12.90;100.00;101691.59;5134962;27;20175;-71
2021/09/22 00:29:59;;;;;;;5.87;4.47;;;;;;;12.87;100.00;101705.06;5135202;27;20168;-71
2021/09/22 00:32:25;;;;;;;4.57;4.17;;;;;;;12.86;100.00;101701.50;5135220;27;20179;-71
2021/09/22 00:34:51;;;;;;;4.73;4.33;;;;;;;12.87;100.00;101705.88;5133462;27;20565;-71
2021/09/22 00:37:16;;;;;;;4.60;4.07;;;;;;;12.88;100.00;101707.53;5135118;27;20168;-71
2021/09/22 00:39:41;;;;;;;5.77;5.17;;;;;;;12.92;100.00;101702.25;5134933;27;20648;-71
2021/09/22 00:42:07;;;;;;;6.17;4.40;;;;;;;12.94;100.00;101702.78;5134932;27;20176;-72
2021/09/22 00:45:06;;;;;;;4.93;4.50;;;;;;;12.96;100.00;101703.28;5131486;27;20300;-72
2021/09/22 00:47:32;;;;;;;5.40;4.10;;;;;;;12.98;100.00;101710.09;5134721;27;20183;-71
2021/09/22 00:49:57;;;;;;;4.77;4.30;;;;;;;12.96;100.00;101709.59;5134946;27;20168;-71
2021/09/22 00:52:24;;;;;;;4.60;4.20;;;;;;;12.92;100.00;101702.25;5134664;27;20184;-71
2021/09/22 00:54:50;;;;;;;6.07;4.30;;;;;;;12.91;100.00;101704.19;5134212;27;20173;-71
2021/09/22 00:57:17;;;;;;;5.57;4.57;;;;;;;12.86;100.00;101701.50;5134740;27;20646;-72
2021/09/22 00:59:43;;;;;;;5.33;4.93;;;;;;;12.81;100.00;101705.13;5134585;27;20255;-71
2021/09/22 01:02:08;;;;;;;5.00;4.47;;;;;;;12.76;100.00;101693.44;5134601;27;20256;-71
2021/09/22 01:04:35;;;;;;;6.47;5.17;;;;;;;12.73;100.00;101696.75;5134034;27;20219;-71
2021/09/22 01:07:03;;;;;;;7.30;5.00;;;;;;;12.67;100.00;101696.00;5134829;27;20184;-72
2021/09/22 01:09:29;;;;;;;5.90;5.37;;;;;;;12.67;100.00;101687.78;5134592;27;20225;-71
2021/09/22 01:11:54;;;;;;;5.60;4.70;;;;;;;12.69;100.00;101690.22;5134636;27;20172;-71
2021/09/22 01:14:22;;;;;;;8.37;5.87;;;;;;;12.71;100.00;101688.00;5134146;27;20228;-71
2021/09/22 01:16:47;;;;;;;5.37;4.87;;;;;;;12.72;100.00;101686.88;5134537;27;20224;-71
2021/09/22 01:19:13;;;;;;;5.80;5.30;;;;;;;12.72;100.00;101692.38;5134728;27;20225;-71
2021/09/22 01:21:43;;;;;;;5.30;4.50;;;;;;;12.73;100.00;101703.06;5135710;27;20176;-71
2021/09/22 01:24:09;;;;;;;6.20;5.60;;;;;;;12.74;100.00;101704.69;5142664;27;20275;-71
2021/09/22 01:26:34;;;;;;;6.33;5.07;;;;;;;12.75;100.00;101711.81;5135068;27;20782;-71
2021/09/22 01:29:00;;;;;;;6.80;5.67;;;;;;;12.76;100.00;101713.44;5134468;27;20160;-71
2021/09/22 01:31:26;;;;;;;5.77;5.07;;;;;;;12.76;100.00;101715.38;5134081;27;20171;-71
2021/09/22 01:33:53;;;;;;;6.07;5.53;;;;;;;12.73;100.00;101707.72;5133497;27;20164;-71
2021/09/22 01:36:19;;;;;;;6.07;5.47;;;;;;;12.69;100.00;101709.41;5133079;27;20164;-71
2021/09/22 01:38:44;;;;;;;6.87;5.27;;;;;;;12.66;100.00;101708.09;5134203;27;20183;-71
2021/09/22 01:41:11;;;;;;;7.73;5.43;;;;;;;12.63;100.00;101705.13;5133996;27;20164;-71
2021/09/22 01:43:38;;;;;;;6.00;5.40;;;;;;;12.60;100.00;101708.47;5133480;27;20256;-71
2021/09/22 01:46:06;;;;;;;6.97;6.27;;;;;;;12.58;100.00;101708.72;5133584;27;20614;-71
2021/09/22 01:48:32;;;;;;;7.03;6.37;;;;;;;12.51;100.00;101708.28;5133560;27;20206;-71
2021/09/22 01:50:59;;;;;;;9.40;7.57;;;;;;;12.52;100.00;101701.69;5133477;27;20259;-71
2021/09/22 01:53:25;;;;;;;8.33;7.57;;;;;;;12.52;100.00;101704.44;5133469;27;20562;-71
2021/09/22 01:55:56;;;;;;;9.97;8.23;;;;;;;12.52;100.00;101707.16;5128460;27;20197;-71
2021/09/22 01:58:22;;;;;;;9.50;8.50;;;;;;;12.52;100.00;101707.16;5130414;27;20185;-71
2021/09/22 02:00:48;;;;;;;9.00;7.70;;;;;;;12.49;100.00;101711.31;5133017;27;20191;-71
2021/09/22 02:03:16;;;;;;;10.00;7.60;;;;;;;12.50;100.00;101712.94;5133132;27;20181;-71
2021/09/22 02:05:41;;;;;;;10.33;8.50;;;;;;;12.52;100.00;101701.69;5132734;27;20212;-71
2021/09/22 02:08:07;;;;;;;11.17;9.17;;;;;;;12.54;100.00;101704.13;5133643;27;20179;-72
2021/09/22 02:10:32;;;;;;;9.33;8.40;;;;;;;12.55;100.00;101711.25;5132966;27;20211;-71
2021/09/22 02:12:58;;;;;;;10.10;8.27;;;;;;;12.56;100.00;101704.66;5132540;27;20180;-71
2021/09/22 02:15:26;;;;;;;10.17;8.73;;;;;;;12.57;100.00;101698.88;5132875;27;20171;-71
2021/09/22 02:17:51;;;;;;;9.77;8.77;;;;;;;12.57;100.00;101695.31;5132876;27;20164;-71
2021/09/22 02:20:17;;;;;;;10.50;6.97;;;;;;;12.53;100.00;101681.38;5132925;27;20177;-71
2021/09/22 02:22:42;;;;;;;8.90;7.97;;;;;;;12.52;100.00;101686.06;5132463;27;20646;-71
2021/09/22 02:25:09;;;;;;;7.53;6.83;;;;;;;12.50;100.00;101691.03;5132411;27;20303;-71
2021/09/22 02:27:35;;;;;;;15.63;7.20;;;;;;;12.54;100.00;101687.69;5132945;27;20229;-71
2021/09/22 02:30:03;;;;;;;8.60;7.80;;;;;;;12.52;100.00;101690.72;5132772;27;20181;-72
2021/09/22 02:32:28;;;;;;;7.50;6.77;;;;;;;12.54;100.00;101684.94;5132572;27;20200;-71
2021/09/22 02:34:53;;;;;;;9.93;8.13;;;;;;;12.54;100.00;101685.75;5132160;27;20629;-71
2021/09/22 02:37:19;;;;;;;9.00;7.90;;;;;;;12.54;100.00;101683.03;5132321;27;20177;-71
2021/09/22 02:39:44;;;;;;;10.03;8.53;;;;;;;12.56;100.00;101675.31;5132673;27;20615;-71
2021/09/22 02:42:10;;;;;;;9.23;8.27;;;;;;;12.57;100.00;101690.66;5132356;27;20572;-71
2021/09/22 02:44:35;;;;;;;8.93;7.43;;;;;;;12.57;100.00;101696.13;5132065;27;20192;-72
2021/09/22 02:47:01;;;;;;;9.97;8.40;;;;;;;12.57;100.00;101695.31;5132117;27;20265;-71
2021/09/22 02:49:27;;;;;;;9.67;7.83;;;;;;;12.59;100.00;101702.16;5132244;27;20212;-71
2021/09/22 02:51:53;;;;;;;8.53;7.70;;;;;;;12.61;100.00;101702.69;5131978;27;20239;-71
2021/09/22 02:54:18;;;;;;;11.30;8.37;;;;;;;12.62;100.00;101700.75;5131905;27;20176;-71
2021/09/22 02:56:44;;;;;;;9.47;8.57;;;;;;;12.64;100.00;101704.00;5132041;27;20176;-71
2021/09/22 02:59:09;;;;;;;9.33;8.10;;;;;;;12.66;100.00;101705.34;5132338;27;20531;-71
2021/09/22 03:01:35;;;;;;;12.67;8.50;;;;;;;12.69;100.00;101709.41;5131994;27;20168;-71
2021/09/22 03:04:01;;;;;;;10.77;8.57;;;;;;;12.69;100.00;101707.50;5131624;27;20219;-71
2021/09/22 03:06:27;;;;;;;10.67;9.30;;;;;;;12.69;100.00;101709.41;5131955;27;20175;-71
2021/09/22 03:08:52;;;;;;;14.13;8.67;;;;;;;12.69;100.00;101693.78;5132052;27;20171;-71
2021/09/22 03:11:18;;;;;;;14.47;8.53;;;;;;;12.68;100.00;101705.88;5131863;27;20177;-71
2021/09/22 03:13:43;;;;;;;9.77;8.87;;;;;;;12.67;100.00;101704.22;5131673;27;20650;-71
2021/09/22 03:16:09;;;;;;;10.17;8.77;;;;;;;12.65;100.00;101706.47;5131876;27;20176;-71
2021/09/22 03:18:35;;;;;;;9.93;8.10;;;;;;;12.63;100.00;101703.19;5131825;27;20172;-71
2021/09/22 03:21:01;;;;;;;8.43;7.63;;;;;;;12.62;100.00;101708.97;5131594;27;20188;-71
2021/09/22 03:23:27;;;;;;;9.43;8.30;;;;;;;12.63;100.00;101714.16;5131264;27;20173;-71
2021/09/22 03:25:52;;;;;;;11.90;9.23;;;;;;;12.66;100.00;101710.00;5131329;27;20214;-71
2021/09/22 03:28:18;;;;;;;13.33;8.07;;;;;;;12.67;100.00;101712.47;5131868;27;20179;-71
2021/09/22 03:30:43;;;;;;;9.57;8.03;;;;;;;12.67;100.00;101706.97;5131612;27;20177;-71
2021/09/22 03:33:09;;;;;;;15.40;8.10;;;;;;;12.67;100.00;101703.41;5131400;27;20653;-71
2021/09/22 03:35:34;;;;;;;9.93;8.93;;;;;;;12.66;100.00;101702.59;5131278;27;20173;-71
2021/09/22 03:38:00;;;;;;;9.90;8.30;;;;;;;12.66;100.00;101719.06;5131500;27;20178;-71
2021/09/22 03:40:26;;;;;;;11.00;9.00;;;;;;;12.65;100.00;101706.47;5131501;27;20639;-71
2021/09/22 03:42:51;;;;;;;11.63;7.80;;;;;;;12.63;100.00;101705.94;5131511;27;20255;-71
2021/09/22 03:45:17;;;;;;;13.73;8.20;;;;;;;12.62;100.00;101704.31;5130945;27;20199;-72
2021/09/22 03:47:42;;;;;;;9.60;8.63;;;;;;;12.62;100.00;101708.97;5131478;28;20164;-71
2021/09/22 03:50:09;;;;;;;9.93;8.60;;;;;;;12.60;100.00;101708.47;5131567;28;20608;-71
2021/09/22 03:52:34;;;;;;;11.00;9.17;;;;;;;12.59;100.00;101696.69;5131407;28;20196;-71
2021/09/22 03:55:00;;;;;;;8.70;7.80;;;;;;;12.61;100.00;101701.88;5131494;28;20208;-71
2021/09/22 03:57:25;;;;;;;8.83;7.93;;;;;;;12.59;100.00;101702.16;5131297;27;20180;-72
2021/09/22 03:59:51;;;;;;;10.87;8.37;;;;;;;12.56;100.00;101705.47;5135645;27;20178;-71
2021/09/22 04:02:16;;;;;;;9.17;7.20;;;;;;;12.58;100.00;101702.44;5135370;27;20168;-71
2021/09/22 04:04:42;;;;;;;8.30;6.57;;;;;;;12.61;100.00;101696.38;5116716;27;20218;-71
2021/09/22 04:07:07;;;;;;;8.60;7.70;;;;;;;12.63;100.00;101694.16;5135588;27;20180;-71
2021/09/22 04:09:33;;;;;;;6.80;6.17;;;;;;;12.65;100.00;101697.41;5135883;27;20172;-71
2021/09/22 04:11:58;;;;;;;14.43;7.67;;;;;;;12.63;100.00;101696.91;5135315;27;20276;-72
2021/09/22 04:14:23;;;;;;;7.97;6.60;;;;;;;12.62;100.00;101695.28;5134973;27;20243;-72
2021/09/22 04:16:49;;;;;;;10.93;6.70;;;;;;;12.62;100.00;101692.53;5135079;27;20631;-71
2021/09/22 04:19:14;;;;;;;9.47;7.67;;;;;;;12.63;100.00;101691.41;5135250;27;20172;-71
2021/09/22 04:21:40;;;;;;;8.40;7.07;;;;;;;12.61;100.00;101696.38;5135473;27;20746;-71
2021/09/22 04:24:05;;;;;;;9.00;6.80;;;;;;;12.61;100.00;101690.91;5134444;27;20672;-71
2021/09/22 04:26:31;;;;;;;11.17;6.77;;;;;;;12.59;100.00;101699.44;5135247;27;20195;-71
2021/09/22 04:28:56;;;;;;;9.60;7.70;;;;;;;12.56;100.00;101689.03;5135011;27;20633;-71
2021/09/22 04:31:22;;;;;;;12.13;7.37;;;;;;;12.60;100.00;101689.28;5135015;27;20180;-72
2021/09/22 04:33:48;;;;;;;7.60;5.87;;;;;;;12.58;100.00;101692.28;5134548;27;20200;-71
2021/09/22 04:36:13;;;;;;;9.47;6.87;;;;;;;12.57;100.00;101689.84;5134859;27;20245;-72
2021/09/22 04:38:41;;;;;;;10.57;7.20;;;;;;;12.59;100.00;101695.88;5135013;27;20216;-71
2021/09/22 04:41:06;;;;;;;7.37;6.57;;;;;;;12.62;100.00;101692.53;5134952;27;20180;-71
2021/09/22 04:43:32;;;;;;;8.53;7.00;;;;;;;12.61;100.00;101694.47;5134646;27;20462;-71
2021/09/22 04:45:57;;;;;;;10.50;6.60;;;;;;;12.60;100.00;101703.78;5134537;27;20204;-72
2021/09/22 04:48:22;;;;;;;7.67;6.83;;;;;;;12.59;100.00;101701.34;5134818;27;20184;-72
2021/09/22 04:50:48;;;;;;;9.10;7.70;;;;;;;12.55;100.00;101697.53;5134672;27;20541;-71
2021/09/22 04:53:14;;;;;;;8.40;7.17;;;;;;;12.53;100.00;101695.09;5134884;27;20204;-72
2021/09/22 04:55:39;;;;;;;10.27;7.43;;;;;;;12.49;100.00;101692.13;5134659;27;20168;-71
2021/09/22 04:58:05;;;;;;;9.33;8.30;;;;;;;12.43;100.00;101695.22;5134333;27;20173;-72
2021/09/22 05:00:30;;;;;;;8.30;7.50;;;;;;;12.41;100.00;101692.78;5134556;27;20243;-71
2021/09/22 05:02:55;;;;;;;8.03;7.13;;;;;;;12.39;100.00;101678.56;5134446;27;20173;-71
2021/09/22 05:05:21;;;;;;;11.00;8.07;;;;;;;12.33;100.00;101693.44;5133985;27;20682;-71
2021/09/22 05:07:46;;;;;;;8.40;7.60;;;;;;;12.31;100.00;101689.38;5134513;27;20184;-72
2021/09/22 05:10:12;;;;;;;9.17;8.27;;;;;;;12.31;100.00;101689.38;5115625;27;20177;-71
2021/09/22 05:12:37;;;;;;;8.03;7.00;;;;;;;12.28;100.00;101696.22;5134774;27;20169;-71
2021/09/22 05:15:04;;;;;;;10.07;7.93;;;;;;;12.29;100.00;101697.84;5133939;27;20172;-71
2021/09/22 05:17:30;;;;;;;8.03;7.23;;;;;;;12.29;100.00;101700.59;5134282;27;20176;-71
2021/09/22 05:19:55;;;;;;;10.57;8.37;;;;;;;12.33;100.00;101698.09;5134420;27;20522;-71
2021/09/22 05:22:21;;;;;;;7.47;6.40;;;;;;;12.34;100.00;101697.81;5134203;27;20518;-71
2021/09/22 05:24:46;;;;;;;10.23;7.20;;;;;;;12.37;100.00;101702.69;5133256;27;20560;-71
2021/09/22 05:27:12;;;;;;;8.00;7.30;;;;;;;12.41;100.00;101698.25;5134403;27;20172;-72
2021/09/22 05:29:38;;;;;;;11.57;8.33;;;;;;;12.44;100.00;101705.06;5134137;27;20173;-71
2021/09/22 05:32:04;;;;;;;9.17;8.27;;;;;;;12.46;100.00;101711.09;5134027;27;20220;-71
2021/09/22 05:34:29;;;;;;;6.70;6.10;;;;;;;12.48;100.00;101695.97;5133516;27;20628;-71
2021/09/22 05:36:55;;;;;;;17.27;8.33;;;;;;;12.50;100.00;101703.91;5133699;27;20379;-71
2021/09/22 05:39:20;;;;;;;11.47;8.07;;;;;;;12.51;100.00;101709.09;5133736;27;20255;-71
2021/09/22 05:41:45;;;;;;;10.13;6.43;;;;;;;12.52;100.00;101701.69;5133845;27;20200;-71
2021/09/22 05:44:11;;;;;;;11.87;8.57;;;;;;;12.52;100.00;101688.78;5133557;27;20544;-71
2021/09/22 05:46:36;;;;;;;9.77;8.77;;;;;;;12.52;100.00;101716.22;5133850;27;20217;-71
2021/09/22 05:49:05;;;;;;;9.73;8.40;;;;;;;12.52;100.00;101712.66;5133641;27;20537;-72
2021/09/22 05:51:32;;;;;;;8.93;8.10;;;;;;;12.55;100.00;101714.00;5133493;27;20173;-71
2021/09/22 05:53:58;;;;;;;12.37;9.33;;;;;;;12.56;100.00;101718.34;5133177;27;20222;-74
2021/09/22 05:56:24;;;;;;;11.97;10.00;;;;;;;12.57;100.00;101714.50;5133775;27;20420;-71
2021/09/22 05:58:49;;;;;;;11.50;7.13;;;;;;;12.58;100.00;101714.22;5133382;27;20530;-71
2021/09/22 06:01:15;;;;;;;9.90;9.00;;;;;;;12.57;100.00;101726.28;5133353;27;20172;-71
2021/09/22 06:03:41;;;;;;;13.83;9.57;;;;;;;12.61;100.00;101727.34;5133120;27;20168;-72
2021/09/22 06:06:06;;;;;;;9.20;8.30;;;;;;;12.66;100.00;101731.94;5133853;27;20545;-72
2021/09/22 06:08:32;;;;;;;8.47;7.63;;;;;;;12.68;100.00;101735.22;5133177;27;20545;-72
2021/09/22 06:10:57;;;;;;;8.93;8.13;;;;;;;12.71;100.00;101732.69;5133127;27;20172;-71
2021/09/22 06:13:23;;;;;;;14.00;9.47;;;;;;;12.80;100.00;101741.09;5132998;27;20164;-72
2021/09/22 06:15:51;;;;;;;16.57;9.10;;;;;;;12.84;100.00;101744.06;5133122;27;20207;-72
2021/09/22 06:18:16;;;;;;;10.20;9.13;;;;;;;12.87;100.00;101744.28;5133097;27;20200;-72
2021/09/22 06:20:42;;;;;;;11.70;9.53;;;;;;;12.92;100.00;101738.75;5132193;27;20668;-72
2021/09/22 06:23:07;;;;;;;10.40;9.43;;;;;;;12.94;100.00;101739.25;5132412;27;20171;-72
2021/09/22 06:25:33;;;;;;;10.97;8.43;;;;;;;12.95;100.00;101743.63;5132653;27;20267;-72
2021/09/22 06:27:59;;;;;;;11.50;9.20;;;;;;;12.97;100.00;101751.56;5132888;27;20188;-72
2021/09/22 06:30:25;;;;;;;9.23;8.43;;;;;;;13.01;100.00;101747.91;5132832;27;20172;-72
2021/09/22 06:32:51;;;;;;;12.37;9.57;;;;;;;13.03;100.00;101753.13;5132693;27;20168;-72
2021/09/22 06:35:17;;;;;;;9.87;7.87;;;;;;;13.02;100.00;101752.31;5132243;27;20173;-71
2021/09/22 06:37:44;;;;;;;9.83;8.80;;;;;;;13.05;100.00;101756.41;5132752;27;20259;-72
2021/09/22 06:40:10;;;;;;;15.23;9.23;;;;;;;13.11;100.00;101756.03;5114124;27;20172;-72
2021/09/22 06:42:36;;;;;;;11.63;7.27;;;;;;;13.16;100.00;101759.78;5132672;27;20172;-72
2021/09/22 06:45:01;;;;;;;10.87;8.03;;;;;;;13.20;100.00;101761.69;5132140;27;20282;-70
2021/09/22 06:47:26;;;;;;;11.83;9.10;;;;;;;13.19;100.00;101746.34;5132656;27;20164;-71
2021/09/22 06:49:52;;;;;;;12.77;9.30;;;;;;;13.23;100.00;101752.06;5132432;27;20167;-71
2021/09/22 06:52:17;;;;;;;9.67;8.20;;;;;;;13.28;100.00;101747.28;5132451;27;20169;-71
2021/09/22 06:54:42;;;;;;;11.53;8.27;;;;;;;13.33;100.00;101758.22;5132297;27;20175;-71
2021/09/22 06:57:08;;;;;;;11.10;7.93;;;;;;;13.40;100.00;101757.81;5132354;27;20272;-71
2021/09/22 06:59:33;;;;;;;10.37;9.27;;;;;;;13.38;100.00;101752.63;5132279;27;20168;-71
2021/09/22 07:01:58;;;;;;;15.00;9.77;;;;;;;13.46;100.00;101756.66;5132273;27;20220;-71
2021/09/22 07:04:24;;;;;;;9.63;8.20;;;;;;;13.52;100.00;101755.44;5131654;27;20245;-71
2021/09/22 07:06:49;;;;;;;12.23;9.77;;;;;;;13.57;100.00;101760.03;5132279;27;20161;-71
2021/09/22 07:09:15;;;;;;;10.33;8.33;;;;;;;13.63;100.00;101758.84;5130000;27;20185;-71
2021/09/22 07:11:40;;;;;;;16.93;8.60;;;;;;;13.66;100.00;101756.31;5130558;27;20176;-75
2021/09/22 07:14:06;;;;;;;13.67;8.97;;;;;;;13.69;100.00;101763.94;5114105;27;20558;-75
2021/09/22 07:16:31;;;;;;;9.83;8.73;;;;;;;13.71;100.00;101769.13;5129226;27;20181;-75
2021/09/22 07:18:57;;;;;;;12.43;8.90;;;;;;;13.75;100.00;101767.44;5131249;27;20173;-76
2021/09/22 07:21:23;;;;;;;10.77;9.73;;;;;;;13.83;100.00;101766.75;5131291;27;20214;-76
2021/09/22 07:23:48;;;;;;;12.63;9.20;;;;;;;13.82;100.00;101770.59;5127914;27;20234;-76
2021/09/22 07:26:14;;;;;;;11.73;9.27;;;;;;;13.82;100.00;101770.59;5131728;27;20747;-75
2021/09/22 07:28:39;;;;;;;13.03;10.60;;;;;;;13.88;100.00;101779.56;5131967;27;20177;-76
2021/09/22 07:31:04;;;;;;;10.70;8.83;;;;;;;13.96;100.00;101778.88;5124246;27;20189;-74
2021/09/22 07:33:30;;;;;;;11.57;9.07;;;;;;;13.97;100.00;101783.25;5130807;27;20208;-75
2021/09/22 07:35:56;;;;;;;11.80;8.27;;;;;;;14.03;100.00;101784.78;5118861;27;20172;-72
2021/09/22 07:38:22;;;;;;;9.00;8.10;;;;;;;14.07;100.00;101785.84;5131984;27;20176;-72
2021/09/22 07:40:49;;;;;;;11.27;8.53;;;;;;;14.04;100.00;101780.97;5131889;27;20280;-72
2021/09/22 07:43:15;;;;;;;11.20;9.60;;;;;;;13.98;100.00;101790.38;5131744;27;20176;-72
2021/09/22 07:45:41;;;;;;;9.83;8.47;;;;;;;14.05;100.00;101784.53;5131427;27;20317;-72
2021/09/22 07:48:06;;;;;;;15.73;9.53;;;;;;;14.10;100.00;101789.91;5131686;28;20251;-72
2021/09/22 07:50:33;;;;;;;11.13;9.10;;;;;;;14.11;100.00;101788.78;5131931;28;20241;-73
2021/09/22 07:52:58;;;;;;;11.87;10.67;;;;;;;14.12;100.00;101785.75;5131724;28;20168;-71
2021/09/22 07:55:23;;;;;;;11.67;10.43;;;;;;;14.12;100.00;101790.41;5131503;28;20179;-72
2021/09/22 07:57:53;;;;;;;12.77;9.50;;;;;;;14.09;100.00;101791.03;5132851;28;20528;-72
2021/09/22 08:00:18;;;;;;;10.33;8.73;;;;;;;14.12;100.00;101783.00;5139450;28;20176;-72
2021/09/22 08:02:44;;;;;;;11.83;10.37;;;;;;;14.21;100.00;101792.19;5114194;27;20632;-72
2021/09/22 08:05:10;;;;;;;16.83;10.20;;;;;;;14.29;100.00;101779.66;5130837;28;20254;-72
2021/09/22 08:07:35;;;;;;;13.70;9.83;;;;;;;14.34;100.00;101782.34;5131413;28;20192;-72
2021/09/22 08:10:01;;;;;;;14.33;10.43;;;;;;;14.38;100.00;101777.84;5131210;28;20204;-72
2021/09/22 08:12:26;;;;;;;11.80;10.00;;;;;;;14.37;100.00;101775.41;5131047;28;20173;-72
2021/09/22 08:14:51;;;;;;;9.00;7.23;;;;;;;14.40;100.00;101769.28;5130741;27;20597;-72
2021/09/22 08:17:18;;;;;;;9.37;8.47;;;;;;;14.40;100.00;101752.78;5130866;27;20245;-72
2021/09/22 08:19:44;;;;;;;13.00;9.97;;;;;;;14.42;100.00;101767.03;5131054;27;20169;-72
2021/09/22 08:22:10;;;;;;;9.07;7.43;;;;;;;14.45;100.00;101772.78;5131091;27;20199;-72
2021/09/22 08:24:36;;;;;;;10.97;7.77;;;;;;;14.41;100.00;101768.16;5130613;28;20652;-71
2021/09/22 08:27:04;;;;;;;9.10;5.23;;;;;;;14.41;100.00;101760.72;5130831;27;20177;-72
2021/09/22 08:29:30;;;;;;;9.40;7.47;;;;;;;14.42;100.00;101765.09;5131006;28;20164;-72
2021/09/22 08:31:55;;;;;;;13.87;7.03;;;;;;;14.41;100.00;101759.91;5130725;28;20180;-74
2021/09/22 08:34:22;;;;;;;12.10;7.27;;;;;;;14.43;100.00;101771.41;5130458;28;20264;-71
2021/09/22 08:36:48;;;;;;;12.50;8.77;;;;;;;14.52;100.00;101764.13;5130855;28;20192;-72
2021/09/22 08:39:13;;;;;;;5.40;4.03;;;;;;;14.55;100.00;101769.03;5128458;28;20215;-72
2021/09/22 08:41:40;;;;;;;9.47;7.73;;;;;;;14.53;100.00;101772.06;5127672;28;20191;-72
2021/09/22 08:44:05;;;;;;;11.43;8.03;;;;;;;14.59;100.00;101770.03;5128263;27;20188;-72
2021/09/22 08:46:32;;;;;;;9.33;7.37;;;;;;;14.60;100.00;101779.91;5134436;27;20687;-72
2021/09/22 08:49:02;;;;;;;5.87;3.00;;;;;;;14.54;100.00;101781.97;5133354;27;20268;-72
2021/09/22 08:51:28;;;;;;;10.63;6.67;;;;;;;14.53;100.00;101782.25;5132903;27;20180;-71
2021/09/22 08:53:54;;;;;;;8.70;7.90;;;;;;;14.58;100.00;101793.16;5125193;27;20204;-72
2021/09/22 08:56:19;;;;;;;7.33;6.60;;;;;;;14.58;100.00;101785.72;5134489;27;20188;-72
2021/09/22 08:58:44;;;;;;;6.80;6.10;;;;;;;14.59;100.00;101779.09;5134826;27;20219;-71
2021/09/22 09:01:15;;;;;;;8.27;7.47;;;;;;;14.65;100.00;101782.56;5134663;27;20198;-72
2021/09/22 09:03:42;;;;;;;6.43;5.67;;;;;;;14.74;100.00;101779.91;5134372;27;20173;-72
2021/09/22 09:06:15;;;;;;;10.67;8.20;;;;;;;14.74;100.00;101786.22;5134496;27;20268;-72
2021/09/22 09:08:40;;;;;;;14.50;7.03;;;;;;;14.74;100.00;101779.91;5134457;27;20225;-72
2021/09/22 09:11:05;;;;;;;8.23;6.87;;;;;;;14.74;100.00;101791.72;5134538;27;20592;-72
2021/09/22 09:13:44;;;;;;;6.87;5.37;;;;;;;14.78;100.00;101789.19;5134265;27;20229;-71
2021/09/22 09:16:16;;;;;;;5.97;5.47;;;;;;;14.86;100.00;101781.03;5134480;27;20255;-72
2021/09/22 09:18:48;;;;;;;8.80;6.47;;;;;;;14.91;100.00;101782.06;5134319;27;20636;-72
2021/09/22 09:21:14;;;;;;;7.57;5.37;;;;;;;14.91;100.00;101780.13;5134205;27;20172;-72
2021/09/22 09:23:58;;;;;;;6.97;5.67;;;;;;;14.91;100.00;101777.38;5134411;27;20221;-72
2021/09/22 09:26:27;;;;;;;4.83;4.43;;;;;;;14.89;100.00;101769.38;5134467;27;20193;-72
2021/09/22 09:28:54;;;;;;;3.73;3.43;;;;;;;14.92;100.00;101772.69;5133945;27;20169;-71
2021/09/22 09:31:29;;;;;;;6.00;5.50;;;;;;;14.98;100.00;101775.00;5134467;27;20169;-72
2021/09/22 09:33:56;;;;;;;5.67;5.17;;;;;;;15.16;100.00;101782.28;5115428;27;20836;-72
2021/09/22 09:36:30;;;;;;;5.37;4.30;;;;;;;15.26;100.00;101772.19;5134124;27;20253;-71
2021/09/22 09:39:04;;;;;;;3.90;3.60;;;;;;;15.25;100.00;101768.63;5134145;27;20176;-71
2021/09/22 09:41:51;;;;;;;2.93;2.70;;;;;;;15.26;100.00;101767.50;5134095;27;20183;-71
2021/09/22 09:44:21;;;;;;;4.53;4.13;;;;;;;15.50;100.00;101771.91;5133779;27;20178;-71
2021/09/22 09:46:48;;;;;;;6.93;4.57;;;;;;;15.68;100.00;101773.69;5133940;27;20192;-71
2021/09/22 09:49:16;;;;;;;5.23;4.27;;;;;;;15.79;100.00;101769.56;5133937;27;20180;-71
2021/09/22 09:51:47;;;;;;;7.37;4.20;;;;;;;15.88;100.00;101770.41;5133968;27;20503;-71
2021/09/22 09:54:16;;;;;;;5.60;3.47;;;;;;;16.02;100.00;101773.91;5133349;27;20380;-72
2021/09/22 09:56:42;;;;;;;6.90;2.67;;;;;;;16.03;99.96;101794.03;5132866;27;20591;-72
2021/09/22 09:59:08;;;;;;;4.40;3.43;;;;;;;15.91;100.00;101782.75;5134048;27;20669;-71
2021/09/22 10:01:43;;;;;;;8.10;3.93;;;;;;;15.91;100.00;101783.59;5133641;27;20211;-71
2021/09/22 10:04:11;;;;;;;5.90;5.37;;;;;;;15.91;100.00;101780.00;5133135;27;20179;-71
2021/09/22 10:06:38;;;;;;;4.73;4.23;;;;;;;15.83;100.00;101778.00;5133638;27;20169;-71
2021/09/22 10:09:04;;;;;;;5.20;4.20;;;;;;;15.80;100.00;101779.47;5115069;27;20181;-71
2021/09/22 10:11:31;;;;;;;4.07;2.70;;;;;;;15.81;100.00;101792.13;5115032;27;20177;-71
2021/09/22 10:13:58;;;;;;;6.83;3.70;;;;;;;15.62;100.00;101783.19;5133116;27;20318;-72
2021/09/22 10:16:24;;;;;;;5.10;3.00;;;;;;;15.54;100.00;101782.00;5133312;27;20187;-71
2021/09/22 10:18:50;;;;;;;3.47;2.50;;;;;;;15.57;100.00;101789.63;5133365;27;20314;-71
2021/09/22 10:21:20;;;;;;;2.40;2.20;;;;;;;15.64;100.00;101783.72;5133105;27;20165;-71
2021/09/22 10:23:48;;;;;;;1.90;1.77;;;;;;;15.76;100.00;101786.72;5132884;27;20530;-71
2021/09/22 10:26:14;;;;;;;2.17;1.90;;;;;;;15.82;100.00;101785.47;5132967;27;20611;-71
2021/09/22 10:28:42;;;;;;;1.40;1.30;;;;;;;16.06;99.74;101787.91;5129647;27;20305;-71
2021/09/22 10:31:16;;;;;;;2.03;1.60;;;;;;;16.32;97.13;101779.75;5132694;27;20192;-71
2021/09/22 10:33:45;;;;;;;2.97;1.93;;;;;;;16.28;94.89;101787.03;5124293;27;20187;-72
2021/09/22 10:36:11;;;;;;;1.50;1.40;;;;;;;16.42;93.23;101853.97;5132850;27;20223;-72
2021/09/22 10:38:40;;;;;;;3.93;1.43;;;;;;;16.68;93.36;101853.31;5133114;27;20267;-71
2021/09/22 10:41:07;;;;;;;1.53;1.07;;;;;;;16.74;90.36;101855.59;5132811;27;20693;-72
2021/09/22 10:43:41;;;;;;;1.37;1.10;;;;;;;16.82;89.84;101870.59;5132676;27;20221;-72
2021/09/22 10:46:06;;;;;;;3.20;0.93;;;;;;;16.78;90.00;101864.91;5132596;27;20479;-72
2021/09/22 10:48:33;;;;;;;4.00;1.57;;;;;;;16.75;88.92;101856.41;5132637;27;20648;-72
2021/09/22 10:51:04;;;;;;;4.20;1.93;;;;;;;16.89;89.81;101844.13;5114233;27;20208;-72
2021/09/22 10:53:35;;;;;;;1.97;1.83;;;;;;;16.84;90.30;101847.03;5132379;27;20180;-72
2021/09/22 10:56:08;;;;;;;1.47;1.37;;;;;;;16.84;89.66;101840.72;5132581;27;20173;-72
2021/09/22 10:58:40;;;;;;;2.50;1.83;;;;;;;16.79;89.90;101843.63;5132470;27;20168;-72
2021/09/22 11:01:05;;;;;;;2.00;1.80;;;;;;;16.95;89.35;101842.06;5132402;27;20219;-72
2021/09/22 11:03:49;;;;;;;1.17;1.07;;;;;;;17.09;87.75;101831.69;5132415;27;20369;-72
2021/09/22 11:06:42;;;;;;;1.53;1.43;;;;;;;17.13;85.89;101824.38;5131938;27;20207;-72
2021/09/22 11:09:10;;;;;;;0.87;0.87;;;;;;;17.33;83.84;101828.47;5132209;27;20260;-72
2021/09/22 11:11:53;;;;;;;2.37;1.70;;;;;;;17.32;82.79;101823.28;5132167;27;20169;-71